Time;durP1;ratioP1;P1;durP2;ratioP2;P2;SDS_P1;SDS_P2;PMS_P1;PMS_P2;Temp;Humidity;BMP_temperature;BMP_pressure;BME280_temperature;BME280_humidity;BME280_pressure;Samples;Min_cycle;Max_cycle;Signal;HPM_P1;HPM_P2
2021/04/21 00:00:30;;;;;;;3.80;1.98;;;26.00;41.90;;;;;;5072132;28;20366;-55
2021/04/21 00:02:58;;;;;;;5.60;2.33;;;25.90;41.80;;;;;;5071901;28;20107;-55
2021/04/21 00:05:26;;;;;;;2.67;1.90;;;25.90;42.40;;;;;;5072216;28;20029;-55
2021/04/21 00:07:54;;;;;;;2.47;1.77;;;25.90;41.90;;;;;;5071950;28;20032;-56
2021/04/21 00:10:22;;;;;;;3.03;1.75;;;25.90;41.80;;;;;;5053923;28;20159;-55
2021/04/21 00:12:50;;;;;;;2.72;1.90;;;25.90;41.90;;;;;;5071591;28;20044;-55
2021/04/21 00:15:21;;;;;;;4.47;1.65;;;25.90;41.90;;;;;;5071778;28;20029;-54
2021/04/21 00:17:53;;;;;;;4.72;1.95;;;25.90;42.00;;;;;;5071639;28;20032;-54
2021/04/21 00:20:22;;;;;;;2.63;1.92;;;25.90;42.00;;;;;;5074240;28;20028;-55
2021/04/21 00:22:54;;;;;;;4.82;1.85;;;25.90;42.00;;;;;;5075219;28;20053;-55
2021/04/21 00:25:20;;;;;;;4.57;1.92;;;25.90;42.00;;;;;;5057522;28;20037;-56
2021/04/21 00:27:47;;;;;;;3.58;1.90;;;25.90;42.00;;;;;;5071855;28;20027;-56
2021/04/21 00:30:16;;;;;;;4.82;1.90;;;25.80;41.90;;;;;;5075416;28;20486;-55
2021/04/21 00:32:46;;;;;;;2.38;1.50;;;25.90;42.00;;;;;;5057280;28;20028;-55
2021/04/21 00:35:18;;;;;;;2.80;1.67;;;25.80;42.00;;;;;;5057612;28;20029;-55
2021/04/21 00:37:46;;;;;;;3.08;1.65;;;25.80;42.00;;;;;;5075276;28;20374;-55
2021/04/21 00:40:16;;;;;;;3.38;1.65;;;25.80;42.00;;;;;;5075695;28;20043;-55
2021/04/21 00:43:00;;;;;;;;;;;25.80;42.10;;;;;;5076117;28;20099;-55
2021/04/21 00:46:18;;;;;;;2.33;1.67;;;25.80;41.90;;;;;;5075610;28;19931;-55
2021/04/21 00:49:13;;;;;;;5.40;1.85;;;25.80;41.80;;;;;;5012555;28;20390;-55
2021/04/21 00:51:53;;;;;;;2.80;1.40;;;25.90;42.00;;;;;;5057240;28;20043;-59
2021/04/21 00:54:41;;;;;;;4.13;1.60;;;25.80;41.90;;;;;;5075408;28;20120;-56
2021/04/21 00:57:34;;;;;;;2.83;1.60;;;25.80;42.00;;;;;;5049856;28;20036;-56
2021/04/21 01:00:14;;;;;;;3.08;1.83;;;25.80;42.10;;;;;;5039813;28;20040;-57
2021/04/21 01:03:06;;;;;;;2.15;1.27;;;25.80;42.20;;;;;;5068012;28;20048;-57
2021/04/21 01:05:42;;;;;;;3.28;1.50;;;25.70;42.20;;;;;;5075395;28;20109;-57
2021/04/21 01:08:26;;;;;;;2.22;1.20;;;25.70;42.20;;;;;;5075373;28;20036;-55
2021/04/21 01:11:02;;;;;;;2.20;1.42;;;25.70;42.20;;;;;;5057717;28;20494;-55
2021/04/21 01:13:36;;;;;;;3.92;1.58;;;25.70;42.30;;;;;;5056542;28;20032;-56
2021/04/21 01:16:04;;;;;;;3.35;1.30;;;25.70;42.30;;;;;;5056749;28;20412;-56
2021/04/21 01:18:33;;;;;;;3.10;1.63;;;25.70;42.30;;;;;;5075085;28;20074;-55
2021/04/21 01:21:10;;;;;;;3.67;1.55;;;25.70;42.30;;;;;;5075245;28;20034;-56
2021/04/21 01:23:52;;;;;;;3.72;1.63;;;25.70;42.30;;;;;;5059389;28;20083;-54
2021/04/21 01:26:39;;;;;;;1.65;1.05;;;25.70;42.20;;;;;;5064197;28;20013;-55
2021/04/21 01:29:07;;;;;;;4.22;1.65;;;25.70;42.20;;;;;;5056453;28;20390;-55
2021/04/21 01:31:35;;;;;;;4.20;1.58;;;25.70;42.20;;;;;;5055685;28;20029;-55
2021/04/21 01:34:04;;;;;;;2.92;1.85;;;25.70;42.20;;;;;;5074713;28;20417;-55
2021/04/21 01:36:33;;;;;;;3.35;1.52;;;25.60;42.20;;;;;;5074464;28;20398;-55
2021/04/21 01:39:02;;;;;;;2.67;1.40;;;25.70;42.20;;;;;;5074708;28;20063;-55
2021/04/21 01:41:42;;;;;;;4.50;1.80;;;25.60;42.10;;;;;;5074040;28;20451;-55
2021/04/21 01:44:19;;;;;;;5.38;1.98;;;25.60;42.20;;;;;;5074730;28;20401;-55
2021/04/21 01:46:52;;;;;;;2.75;1.48;;;25.60;42.10;;;;;;5056231;28;20035;-55
2021/04/21 01:49:21;;;;;;;2.30;1.42;;;25.60;42.10;;;;;;5073950;28;20021;-55
2021/04/21 01:51:54;;;;;;;2.33;1.48;;;25.60;42.10;;;;;;5074266;28;20028;-55
2021/04/21 01:54:23;;;;;;;6.00;1.70;;;25.60;42.20;;;;;;5074736;28;20444;-54
2021/04/21 01:56:58;;;;;;;3.92;1.58;;;25.60;42.20;;;;;;5074129;28;20021;-55
2021/04/21 01:59:39;;;;;;;4.35;1.90;;;25.60;42.20;;;;;;5074263;28;20068;-56
2021/04/21 02:02:32;;;;;;;3.00;1.80;;;25.60;42.20;;;;;;5074202;28;20139;-55
2021/04/21 02:04:58;;;;;;;2.42;1.60;;;25.60;42.20;;;;;;5074077;28;20025;-55
2021/04/21 02:08:03;;;;;;;3.90;1.60;;;25.60;42.20;;;;;;5073962;28;20099;-55
2021/04/21 02:10:56;;;;;;;3.05;1.50;;;25.50;42.10;;;;;;5073675;28;20024;-55
2021/04/21 02:13:39;;;;;;;3.53;1.95;;;25.60;42.80;;;;;;5073878;28;20028;-54
2021/04/21 02:16:18;;;;;;;4.70;1.85;;;25.60;42.20;;;;;;5074196;28;20032;-54
2021/04/21 02:19:07;;;;;;;2.30;1.65;;;25.60;42.20;;;;;;5073668;28;20066;-55
2021/04/21 02:21:45;;;;;;;2.33;1.50;;;25.50;42.20;;;;;;5073624;28;20044;-55
2021/04/21 02:24:30;;;;;;;2.83;1.60;;;25.50;42.30;;;;;;5073078;28;20016;-55
2021/04/21 02:27:09;;;;;;;3.72;1.80;;;25.50;42.30;;;;;;5073876;28;20433;-55
2021/04/21 02:29:35;;;;;;;3.53;1.90;;;25.50;42.30;;;;;;5073641;28;20089;-55
2021/04/21 02:32:15;;;;;;;6.90;2.25;;;25.50;42.30;;;;;;5073560;28;20029;-56
2021/04/21 02:34:59;;;;;;;3.03;1.50;;;25.50;42.30;;;;;;5073679;28;20166;-56
2021/04/21 02:37:56;;;;;;;4.90;2.03;;;25.50;42.30;;;;;;5073373;28;20040;-55
2021/04/21 02:40:27;;;;;;;3.03;1.55;;;25.50;42.30;;;;;;5053388;28;20083;-54
2021/04/21 02:42:58;;;;;;;4.95;2.03;;;25.50;42.40;;;;;;5072983;28;20035;-55
2021/04/21 02:45:40;;;;;;;3.83;1.98;;;25.50;42.40;;;;;;5073146;28;20122;-55
2021/04/21 02:48:15;;;;;;;4.40;1.75;;;25.50;42.50;;;;;;5056722;28;20044;-55
2021/04/21 02:50:49;;;;;;;3.50;1.73;;;25.50;42.50;;;;;;5072817;28;20024;-55
2021/04/21 02:53:36;;;;;;;3.85;1.80;;;25.50;42.50;;;;;;5073340;28;20082;-55
2021/04/21 02:56:30;;;;;;;2.67;1.50;;;25.50;42.50;;;;;;5073312;28;20040;-54
2021/04/21 02:59:13;;;;;;;2.90;1.40;;;25.50;42.50;;;;;;5072833;28;20041;-55
2021/04/21 03:01:48;;;;;;;2.47;1.52;;;25.40;42.50;;;;;;5073075;28;20037;-56
2021/04/21 03:04:29;;;;;;;4.80;2.05;;;25.40;42.40;;;;;;5072738;28;20028;-55
2021/04/21 03:06:57;;;;;;;8.98;1.70;;;25.40;42.50;;;;;;5072984;28;20057;-54
2021/04/21 03:09:34;;;;;;;4.03;1.88;;;25.50;42.60;;;;;;5065665;28;20021;-54
2021/04/21 03:12:04;;;;;;;3.17;1.58;;;25.40;42.60;;;;;;5055312;28;20041;-54
2021/04/21 03:14:34;;;;;;;2.22;1.40;;;25.50;42.70;;;;;;5072658;28;20120;-54
2021/04/21 03:17:10;;;;;;;5.22;1.65;;;25.40;42.60;;;;;;5073007;28;20032;-54
2021/04/21 03:19:47;;;;;;;2.83;1.50;;;25.40;42.60;;;;;;5054436;28;20355;-55
2021/04/21 03:22:14;;;;;;;3.40;1.60;;;25.40;42.60;;;;;;5072086;28;20182;-55
2021/04/21 03:25:12;;;;;;;3.95;1.80;;;25.40;42.60;;;;;;5072224;28;20539;-55
2021/04/21 03:27:48;;;;;;;3.30;1.50;;;25.40;42.70;;;;;;5026094;28;20418;-55
2021/04/21 03:30:16;;;;;;;4.03;2.05;;;25.40;42.70;;;;;;5072059;28;20059;-55
2021/04/21 03:32:59;;;;;;;3.97;1.88;;;25.40;42.70;;;;;;5054771;28;20033;-55
2021/04/21 03:35:26;;;;;;;4.05;1.85;;;25.40;42.70;;;;;;5071014;28;20037;-55
2021/04/21 03:37:58;;;;;;;5.13;1.92;;;25.40;42.70;;;;;;5072776;28;20036;-55
2021/04/21 03:40:24;;;;;;;3.22;1.75;;;25.30;42.70;;;;;;5070880;28;20474;-54
2021/04/21 03:42:51;;;;;;;3.58;1.90;;;25.40;42.70;;;;;;5071887;28;20169;-55
2021/04/21 03:45:18;;;;;;;2.85;1.52;;;25.30;42.70;;;;;;5054570;28;20024;-55
2021/04/21 03:47:44;;;;;;;3.25;1.63;;;25.40;42.80;;;;;;5054544;28;20024;-55
2021/04/21 03:50:11;;;;;;;2.42;1.40;;;25.30;42.70;;;;;;5071779;28;20063;-55
2021/04/21 03:52:42;;;;;;;3.88;2.08;;;25.30;42.80;;;;;;5072638;28;20043;-55
2021/04/21 03:55:11;;;;;;;2.85;1.65;;;25.30;42.80;;;;;;5071366;28;20033;-54
2021/04/21 03:57:48;;;;;;;3.70;1.48;;;25.30;42.80;;;;;;5072346;28;20108;-55
2021/04/21 04:00:20;;;;;;;4.07;1.80;;;25.30;42.80;;;;;;5072294;28;20028;-54
2021/04/21 04:02:56;;;;;;;3.70;1.45;;;25.30;42.70;;;;;;5054302;28;20486;-54
2021/04/21 04:05:28;;;;;;;5.75;2.13;;;25.30;42.70;;;;;;5072074;28;20025;-57
2021/04/21 04:07:59;;;;;;;2.30;1.30;;;25.30;42.70;;;;;;5072167;28;20425;-56
2021/04/21 04:10:26;;;;;;;3.17;1.45;;;25.30;42.70;;;;;;5072066;28;20120;-57
2021/04/21 04:12:54;;;;;;;2.58;1.35;;;25.30;42.70;;;;;;5071312;28;20056;-57
2021/04/21 04:15:22;;;;;;;3.80;1.73;;;25.30;42.60;;;;;;5072124;28;20044;-57
2021/04/21 04:17:51;;;;;;;3.58;1.52;;;25.30;42.60;;;;;;5071573;28;20025;-54
2021/04/21 04:20:17;;;;;;;2.63;1.52;;;25.30;42.60;;;;;;5072257;28;20044;-55
2021/04/21 04:22:48;;;;;;;3.60;1.80;;;25.30;42.60;;;;;;5071478;28;20048;-57
2021/04/21 04:25:16;;;;;;;1.58;1.08;;;25.30;42.60;;;;;;5072220;28;20031;-57
2021/04/21 04:27:43;;;;;;;3.60;1.50;;;25.30;42.60;;;;;;5071651;28;20016;-57
2021/04/21 04:30:10;;;;;;;3.20;1.33;;;25.20;42.50;;;;;;5071728;28;20082;-57
2021/04/21 04:32:40;;;;;;;2.58;1.38;;;25.30;42.60;;;;;;5071967;28;20025;-57
2021/04/21 04:35:07;;;;;;;3.83;1.38;;;25.20;42.50;;;;;;5071975;28;20076;-57
2021/04/21 04:37:39;;;;;;;2.70;1.58;;;25.20;42.60;;;;;;5071950;28;20032;-59
2021/04/21 04:40:14;;;;;;;3.33;1.38;;;25.20;42.60;;;;;;5071610;28;20047;-57
2021/04/21 04:42:40;;;;;;;4.55;1.70;;;25.20;42.60;;;;;;5071625;28;20123;-58
2021/04/21 04:45:07;;;;;;;3.15;1.17;;;25.20;42.60;;;;;;5070979;28;20139;-57
2021/04/21 04:47:42;;;;;;;3.78;1.48;;;25.20;42.60;;;;;;5071537;28;20029;-57
2021/04/21 04:50:11;;;;;;;3.85;1.45;;;25.20;42.70;;;;;;5071913;28;20024;-58
2021/04/21 04:52:39;;;;;;;2.38;1.15;;;25.20;42.70;;;;;;5071828;28;20036;-58
2021/04/21 04:55:08;;;;;;;1.67;1.20;;;25.20;42.70;;;;;;5071121;28;20024;-57
2021/04/21 04:57:34;;;;;;;3.08;1.23;;;25.20;42.70;;;;;;5071597;28;20025;-57
2021/04/21 05:00:04;;;;;;;5.45;1.42;;;25.20;42.70;;;;;;5071583;28;20043;-57
2021/04/21 05:02:35;;;;;;;2.77;1.60;;;25.20;42.70;;;;;;5071857;28;20373;-57
2021/04/21 05:05:05;;;;;;;2.40;1.30;;;25.20;42.80;;;;;;5053215;28;20082;-57
2021/04/21 05:07:43;;;;;;;3.03;1.63;;;25.20;42.70;;;;;;5073663;28;20394;-57
2021/04/21 05:10:29;;;;;;;5.65;1.65;;;25.10;42.70;;;;;;5054738;28;20455;-58
2021/04/21 05:13:03;;;;;;;2.50;1.35;;;25.10;42.70;;;;;;5071419;28;20051;-57
2021/04/21 05:15:32;;;;;;;3.35;2.15;;;25.10;42.70;;;;;;5074785;28;20087;-59
2021/04/21 05:18:10;;;;;;;4.90;1.90;;;25.10;42.70;;;;;;5073848;28;20036;-57
2021/04/21 05:20:46;;;;;;;3.42;1.50;;;25.10;42.70;;;;;;5074828;28;20450;-56
2021/04/21 05:23:40;;;;;;;3.65;1.80;;;25.10;42.70;;;;;;5074779;28;20067;-56
2021/04/21 05:26:25;;;;;;;3.03;1.60;;;25.10;42.70;;;;;;5040266;28;20032;-57
2021/04/21 05:29:13;;;;;;;5.45;2.03;;;25.10;42.70;;;;;;5074777;28;20028;-57
2021/04/21 05:31:58;;;;;;;4.15;1.75;;;25.10;42.70;;;;;;5074651;28;20036;-56
2021/04/21 05:34:42;;;;;;;3.65;1.73;;;25.10;42.70;;;;;;5074569;28;20056;-57
2021/04/21 05:37:45;;;;;;;6.32;2.58;;;25.10;42.70;;;;;;5074411;28;20032;-57
2021/04/21 05:40:36;;;;;;;3.75;1.83;;;25.10;42.80;;;;;;5074491;28;20047;-57
2021/04/21 05:43:38;;;;;;;3.38;1.90;;;25.10;42.80;;;;;;5074852;28;20016;-57
2021/04/21 05:46:41;;;;;;;4.00;2.00;;;25.10;42.80;;;;;;5056519;28;20470;-56
2021/04/21 05:49:30;;;;;;;2.58;1.58;;;25.10;42.80;;;;;;5074648;28;20028;-58
2021/04/21 05:51:59;;;;;;;3.22;1.80;;;25.10;42.80;;;;;;5068122;28;20178;-57
2021/04/21 05:55:03;;;;;;;5.68;1.85;;;25.10;42.90;;;;;;5052784;28;20387;-58
2021/04/21 05:57:32;;;;;;;3.38;1.73;;;25.00;42.80;;;;;;5054375;28;20045;-58
2021/04/21 06:00:36;;;;;;;3.33;1.67;;;25.10;42.90;;;;;;5073249;28;20033;-56
2021/04/21 06:03:04;;;;;;;4.00;2.15;;;25.00;42.80;;;;;;5032730;28;20380;-56
2021/04/21 06:05:30;;;;;;;4.60;1.80;;;25.10;42.90;;;;;;5032177;28;20120;-57
2021/04/21 06:07:56;;;;;;;4.75;1.75;;;25.00;42.80;;;;;;5031290;28;20042;-57
2021/04/21 06:10:29;;;;;;;2.65;1.70;;;25.10;42.90;;;;;;5031576;28;20056;-57
2021/04/21 06:13:01;;;;;;;5.28;2.15;;;25.00;43.50;;;;;;5014444;28;20041;-57
2021/04/21 06:15:33;;;;;;;;;;;25.10;43.00;;;;;;5031162;28;20057;-55
2021/04/21 06:18:01;;;;;;;4.15;1.70;;;25.00;43.00;;;;;;5014207;28;19952;-56
2021/04/21 06:20:33;;;;;;;3.13;1.70;;;25.10;42.80;;;;;;5011490;28;20041;-56
2021/04/21 06:23:02;;;;;;;4.32;1.92;;;25.10;42.80;;;;;;5011694;28;20056;-57
2021/04/21 06:25:28;;;;;;;8.60;2.10;;;25.10;42.90;;;;;;5011640;28;20041;-57
2021/04/21 06:28:09;;;;;;;6.47;2.25;;;25.10;42.90;;;;;;5011808;28;20387;-57
2021/04/21 06:30:35;;;;;;;6.55;2.22;;;25.00;42.90;;;;;;5011446;28;20037;-57
2021/04/21 06:33:03;;;;;;;3.63;2.00;;;25.10;43.00;;;;;;5003047;28;20043;-56
2021/04/21 06:35:30;;;;;;;8.73;2.67;;;25.10;43.00;;;;;;5053141;28;20029;-57
2021/04/21 06:37:57;;;;;;;7.35;2.80;;;25.10;43.00;;;;;;5053082;28;20032;-57
2021/04/21 06:40:30;;;;;;;7.07;3.22;;;25.00;42.90;;;;;;5034940;28;20122;-57
2021/04/21 06:42:57;;;;;;;8.88;2.75;;;25.00;42.90;;;;;;5053154;28;20025;-57
2021/04/21 06:45:25;;;;;;;7.63;2.78;;;25.10;42.90;;;;;;5052855;28;20029;-56
2021/04/21 06:47:53;;;;;;;8.40;2.28;;;25.00;42.80;;;;;;5053147;28;20395;-56
2021/04/21 06:50:25;;;;;;;5.97;2.78;;;25.10;42.90;;;;;;5053102;28;20812;-57
2021/04/21 06:52:51;;;;;;;5.60;2.22;;;25.00;42.80;;;;;;5052931;28;20055;-56
2021/04/21 06:55:17;;;;;;;9.52;3.22;;;25.10;42.90;;;;;;5052867;28;20073;-56
2021/04/21 06:57:44;;;;;;;8.88;2.83;;;25.00;42.80;;;;;;5052737;28;20496;-56
2021/04/21 07:00:18;;;;;;;6.15;2.55;;;25.00;42.80;;;;;;5052652;28;20032;-57
2021/04/21 07:02:47;;;;;;;5.57;2.15;;;25.10;42.90;;;;;;5052335;28;20471;-57
2021/04/21 07:05:34;;;;;;;8.63;3.28;;;25.00;42.80;;;;;;5052041;28;20021;-57
2021/04/21 07:08:03;;;;;;;7.47;3.40;;;25.00;42.90;;;;;;5052355;28;20112;-58
2021/04/21 07:10:29;;;;;;;5.75;2.75;;;25.00;42.80;;;;;;5052315;28;20113;-57
2021/04/21 07:12:57;;;;;;;5.05;2.67;;;25.00;42.90;;;;;;5052461;28;20025;-56
2021/04/21 07:15:25;;;;;;;6.32;2.90;;;25.00;42.90;;;;;;5052186;28;20040;-57
2021/04/21 07:17:51;;;;;;;9.32;3.63;;;25.00;42.90;;;;;;5034476;28;20029;-57
2021/04/21 07:20:18;;;;;;;7.93;3.15;;;25.10;43.00;;;;;;5052498;28;20040;-57
2021/04/21 07:22:46;;;;;;;5.75;3.10;;;25.00;43.00;;;;;;5052062;28;20520;-57
2021/04/21 07:25:15;;;;;;;9.48;3.45;;;25.10;43.00;;;;;;5052325;28;20028;-57
2021/04/21 07:27:44;;;;;;;8.95;3.47;;;25.10;43.10;;;;;;5052190;28;20117;-56
2021/04/21 07:30:11;;;;;;;9.35;3.70;;;25.10;43.10;;;;;;5051304;28;20447;-58
2021/04/21 07:32:45;;;;;;;5.65;2.97;;;25.10;43.10;;;;;;5052093;28;20025;-58
2021/04/21 07:35:18;;;;;;;6.20;3.15;;;25.10;43.10;;;;;;5051867;28;20477;-57
2021/04/21 07:37:45;;;;;;;8.05;2.70;;;25.10;43.10;;;;;;5017689;28;20037;-58
2021/04/21 07:40:32;;;;;;;6.60;2.90;;;25.10;43.20;;;;;;5051867;28;20032;-58
2021/04/21 07:43:12;;;;;;;4.65;2.55;;;25.10;43.20;;;;;;5034167;28;20039;-57
2021/04/21 07:45:42;;;;;;;8.25;2.67;;;25.10;43.20;;;;;;5052373;28;20037;-57
2021/04/21 07:48:27;;;;;;;;;;;25.20;43.30;;;;;;5054821;28;20546;-58
2021/04/21 07:50:53;;;;;;;6.70;2.40;;;25.20;43.30;;;;;;5072026;28;20353;-57
2021/04/21 07:53:19;;;;;;;5.10;2.67;;;25.30;43.10;;;;;;5071343;28;20032;-57
2021/04/21 07:55:45;;;;;;;5.32;2.35;;;25.30;43.20;;;;;;5071954;28;20127;-57
2021/04/21 07:58:11;;;;;;;4.60;2.53;;;25.30;43.20;;;;;;5071665;28;20494;-58
2021/04/21 08:00:37;;;;;;;9.35;2.75;;;25.30;43.20;;;;;;5071538;28;20075;-58
2021/04/21 08:03:04;;;;;;;7.80;3.15;;;25.30;43.20;;;;;;5071750;28;20402;-55
2021/04/21 08:05:31;;;;;;;9.98;3.47;;;25.30;43.30;;;;;;5071343;28;20037;-59
2021/04/21 08:08:03;;;;;;;11.07;3.35;;;25.30;43.30;;;;;;5071067;28;20143;-59
2021/04/21 08:10:34;;;;;;;9.68;3.55;;;25.30;43.30;;;;;;5071443;28;20040;-58
2021/04/21 08:13:01;;;;;;;7.78;2.67;;;25.30;43.20;;;;;;5053271;28;20033;-70
2021/04/21 08:15:35;;;;;;;9.00;3.22;;;25.30;43.10;;;;;;5071552;28;20101;-57
2021/04/21 08:18:11;;;;;;;4.78;2.47;;;25.40;43.20;;;;;;5070628;28;20038;-57
2021/04/21 08:20:51;;;;;;;8.82;3.10;;;25.40;43.10;;;;;;5070455;28;20032;-57
2021/04/21 08:23:19;;;;;;;20.20;12.60;;;25.40;43.10;;;;;;5070618;28;20050;-56
2021/04/21 08:25:46;;;;;;;33.88;30.15;;;25.50;43.10;;;;;;5052493;28;20025;-57
2021/04/21 08:28:12;;;;;;;33.25;28.83;;;25.50;43.00;;;;;;5070640;28;20029;-53
2021/04/21 08:30:51;;;;;;;32.38;27.15;;;25.50;43.00;;;;;;5071368;28;20493;-54
2021/04/21 08:33:17;;;;;;;22.65;19.70;;;25.60;43.00;;;;;;5070930;28;20028;-53
2021/04/21 08:35:43;;;;;;;13.38;11.98;;;25.60;43.00;;;;;;5071306;28;20467;-54
2021/04/21 08:38:09;;;;;;;11.02;6.80;;;25.60;42.90;;;;;;5053172;28;20033;-51
2021/04/21 08:40:38;;;;;;;10.07;5.30;;;25.70;43.00;;;;;;5054122;28;20783;-51
2021/04/21 08:43:07;;;;;;;8.65;4.50;;;25.60;42.90;;;;;;5074841;28;20028;-54
2021/04/21 08:45:35;;;;;;;11.98;4.53;;;25.70;42.90;;;;;;5075519;28;20074;-53
2021/04/21 08:48:03;;;;;;;8.88;3.60;;;25.70;42.90;;;;;;5056821;28;20040;-53
2021/04/21 08:50:34;;;;;;;5.53;2.67;;;25.70;42.80;;;;;;5075298;28;20406;-51
2021/04/21 08:53:05;;;;;;;6.97;2.65;;;25.80;42.80;;;;;;5075310;28;20047;-51
2021/04/21 08:55:33;;;;;;;4.43;2.70;;;25.80;42.60;;;;;;5075424;28;20118;-52
2021/04/21 08:58:01;;;;;;;4.35;2.63;;;25.80;42.50;;;;;;5075335;28;20108;-52
2021/04/21 09:00:27;;;;;;;4.35;2.60;;;25.90;42.60;;;;;;5074963;28;20039;-51
2021/04/21 09:02:53;;;;;;;5.30;2.50;;;25.90;42.40;;;;;;5075224;28;20024;-51
2021/04/21 09:05:20;;;;;;;4.88;1.83;;;26.00;42.50;;;;;;5057171;28;20418;-52
2021/04/21 09:07:46;;;;;;;5.55;2.00;;;26.00;42.30;;;;;;5056742;28;20033;-52
2021/04/21 09:10:15;;;;;;;25.23;20.70;;;26.00;42.10;;;;;;5057204;28;20430;-52
2021/04/21 09:12:41;;;;;;;23.60;21.23;;;26.10;42.10;;;;;;5075190;28;20041;-52
2021/04/21 09:15:09;;;;;;;20.73;16.88;;;26.10;42.00;;;;;;5074907;28;20035;-52
2021/04/21 09:17:52;;;;;;;11.60;10.48;;;26.20;41.80;;;;;;5075127;28;20052;-51
2021/04/21 09:20:21;;;;;;;10.00;8.27;;;26.20;41.50;;;;;;5074611;28;20074;-51
2021/04/21 09:23:19;;;;;;;8.90;8.07;;;26.30;41.50;;;;;;5074542;28;20056;-51
2021/04/21 09:25:50;;;;;;;10.05;4.80;;;26.30;41.60;;;;;;5057082;28;20366;-51
2021/04/21 09:28:21;;;;;;;5.47;3.50;;;26.30;41.10;;;;;;5074532;28;20390;-51
2021/04/21 09:30:59;;;;;;;6.63;3.15;;;26.30;41.00;;;;;;5074741;28;20492;-51
2021/04/21 09:33:29;;;;;;;4.03;2.38;;;26.30;40.80;;;;;;5074742;28;20039;-51
2021/04/21 09:35:56;;;;;;;10.32;2.95;;;26.30;40.70;;;;;;5073731;28;20031;-52
2021/04/21 09:38:24;;;;;;;4.88;2.28;;;26.30;40.90;;;;;;5073707;28;20016;-51
2021/04/21 09:40:54;;;;;;;5.15;1.70;;;26.30;41.10;;;;;;5074800;28;20028;-52
2021/04/21 09:43:28;;;;;;;5.70;1.75;;;26.30;41.00;;;;;;5074432;28;20429;-52
2021/04/21 09:45:59;;;;;;;7.72;2.10;;;26.30;41.00;;;;;;5056605;28;20121;-51
2021/04/21 09:48:32;;;;;;;6.57;3.88;;;26.30;40.90;;;;;;5074257;28;20028;-52
2021/04/21 09:51:05;;;;;;;9.88;6.45;;;26.30;40.40;;;;;;5074518;28;20039;-51
2021/04/21 09:53:42;;;;;;;8.90;7.03;;;26.30;40.40;;;;;;5073379;28;20043;-51
2021/04/21 09:56:11;;;;;;;9.20;4.78;;;26.30;40.10;;;;;;5074315;28;20067;-51
2021/04/21 09:58:41;;;;;;;19.75;16.75;;;26.40;40.20;;;;;;5074143;28;20020;-52
2021/04/21 10:01:34;;;;;;;27.13;24.25;;;26.40;40.20;;;;;;5074099;28;20040;-52
2021/04/21 10:04:13;;;;;;;26.05;21.77;;;26.40;40.40;;;;;;5069807;28;20036;-52
2021/04/21 10:06:50;;;;;;;16.60;14.57;;;26.40;40.20;;;;;;5074099;28;20032;-51
2021/04/21 10:09:33;;;;;;;8.52;7.63;;;26.40;40.00;;;;;;5055817;28;20421;-52
2021/04/21 10:12:21;;;;;;;6.95;5.75;;;26.40;39.90;;;;;;5074014;28;20024;-51
2021/04/21 10:15:09;;;;;;;4.60;3.67;;;26.50;40.00;;;;;;5073650;28;20036;-52
2021/04/21 10:17:46;;;;;;;7.70;3.67;;;26.50;39.70;;;;;;5072858;28;20093;-54
2021/04/21 10:20:14;;;;;;;6.05;3.75;;;26.60;39.70;;;;;;5072881;28;20024;-54
2021/04/21 10:22:42;;;;;;;19.23;17.05;;;26.60;39.80;;;;;;5073240;28;20432;-54
2021/04/21 10:25:09;;;;;;;28.20;25.48;;;26.60;39.80;;;;;;5073465;28;20024;-53
2021/04/21 10:27:35;;;;;;;32.53;29.08;;;26.70;39.80;;;;;;5073426;28;20130;-54
2021/04/21 10:30:06;;;;;;;27.00;24.20;;;26.70;39.90;;;;;;5073020;28;20135;-54
2021/04/21 10:32:34;;;;;;;25.23;22.80;;;26.70;39.80;;;;;;5073483;28;20394;-53
2021/04/21 10:35:00;;;;;;;22.63;20.23;;;26.80;40.00;;;;;;5072597;28;20355;-53
2021/04/21 10:37:26;;;;;;;26.80;18.60;;;26.80;39.90;;;;;;5055362;28;20037;-59
2021/04/21 10:39:54;;;;;;;23.38;16.02;;;26.90;39.70;;;;;;5072880;28;20029;-66
2021/04/21 10:42:22;;;;;;;17.38;13.55;;;26.90;39.60;;;;;;5073108;28;20020;-61
2021/04/21 10:44:50;;;;;;;14.25;9.82;;;26.90;39.60;;;;;;5073220;28;20116;-56
2021/04/21 10:47:22;;;;;;;12.18;8.98;;;26.80;39.40;;;;;;5072839;28;20028;-56
2021/04/21 10:49:56;;;;;;;15.00;10.15;;;26.80;39.50;;;;;;5072926;28;20035;-55
2021/04/21 10:52:29;;;;;;;8.88;8.00;;;26.80;39.60;;;;;;5072918;28;20028;-54
2021/04/21 10:55:03;;;;;;;9.40;7.30;;;26.80;39.50;;;;;;5072865;28;20101;-55
2021/04/21 10:57:42;;;;;;;8.90;6.65;;;26.90;39.50;;;;;;5073502;28;20391;-55
2021/04/21 11:00:14;;;;;;;5.40;4.90;;;26.90;39.60;;;;;;5072888;28;20044;-56
2021/04/21 11:02:40;;;;;;;6.25;4.15;;;26.90;39.30;;;;;;5072946;28;20343;-56
2021/04/21 11:05:11;;;;;;;38.85;14.90;;;27.00;39.50;;;;;;5071617;28;20020;-56
2021/04/21 11:07:39;;;;;;;21.50;17.38;;;27.00;39.00;;;;;;5072814;28;20063;-56
2021/04/21 11:10:06;;;;;;;24.00;20.77;;;27.00;39.00;;;;;;5071672;28;20382;-52
2021/04/21 11:12:52;;;;;;;23.52;21.10;;;27.00;39.20;;;;;;5072057;28;20024;-54
2021/04/21 11:15:42;;;;;;;16.65;14.63;;;27.00;39.30;;;;;;5071926;28;20069;-52
2021/04/21 11:18:09;;;;;;;10.20;9.20;;;27.00;39.30;;;;;;5066870;28;20509;-53
2021/04/21 11:20:47;;;;;;;8.55;7.75;;;27.00;39.10;;;;;;5053226;28;20141;-53
2021/04/21 11:26:23;;;;;;;10.65;6.30;;;27.00;39.00;;;;;;5051529;28;20434;-53
2021/04/21 11:29:18;;;;;;;8.98;6.85;;;27.00;38.80;;;;;;5071057;28;20089;-53
2021/04/21 11:31:51;;;;;;;8.50;6.00;;;27.00;38.90;;;;;;5072461;28;20730;-53
2021/04/21 11:34:21;;;;;;;7.03;5.65;;;27.00;38.90;;;;;;5072739;28;20059;-53
2021/04/21 11:36:48;;;;;;;9.02;6.60;;;27.00;39.00;;;;;;5071906;28;20036;-53
2021/04/21 11:39:15;;;;;;;7.40;5.78;;;27.00;39.10;;;;;;5071970;28;20403;-53
2021/04/21 11:41:46;;;;;;;6.55;4.82;;;27.00;39.10;;;;;;5071814;28;20071;-53
2021/04/21 11:44:49;;;;;;;7.20;3.90;;;27.10;38.80;;;;;;5053646;28;20127;-53
2021/04/21 11:47:41;;;;;;;4.18;3.10;;;27.10;38.90;;;;;;5071967;28;20032;-52
2021/04/21 11:50:12;;;;;;;9.18;3.63;;;27.20;38.80;;;;;;5071089;28;20036;-52
2021/04/21 11:52:59;;;;;;;10.40;3.00;;;27.20;38.50;;;;;;5072125;28;20032;-53
2021/04/21 11:55:59;;;;;;;8.77;3.15;;;27.30;38.50;;;;;;5072162;28;20036;-52
2021/04/21 11:58:40;;;;;;;6.60;3.70;;;27.30;38.50;;;;;;5071974;28;20545;-53
2021/04/21 12:01:10;;;;;;;8.65;2.50;;;27.30;38.60;;;;;;5054083;28;20033;-53
2021/04/21 12:03:37;;;;;;;7.80;2.53;;;27.30;38.50;;;;;;5072635;28;20043;-54
2021/04/21 12:06:15;;;;;;;6.82;2.63;;;27.40;38.70;;;;;;5072320;28;20067;-52
2021/04/21 12:08:47;;;;;;;7.22;1.88;;;27.40;38.70;;;;;;5072205;28;20029;-53
2021/04/21 12:11:13;;;;;;;6.03;2.08;;;27.40;38.70;;;;;;5072164;28;20035;-54
2021/04/21 12:13:43;;;;;;;5.45;1.70;;;27.40;38.70;;;;;;5072147;28;20103;-53
2021/04/21 12:16:10;;;;;;;7.22;1.75;;;27.40;38.60;;;;;;5074039;28;20096;-53
2021/04/21 12:18:54;;;;;;;4.10;1.77;;;27.50;38.70;;;;;;5058371;28;20025;-53
2021/04/21 12:21:24;;;;;;;6.35;1.98;;;27.50;38.60;;;;;;5076249;28;20095;-52
2021/04/21 12:24:01;;;;;;;4.10;1.67;;;27.50;38.50;;;;;;5076020;28;20044;-54
2021/04/21 12:26:30;;;;;;;5.72;1.95;;;27.50;38.60;;;;;;5076052;28;20067;-54
2021/04/21 12:29:12;;;;;;;7.13;2.08;;;27.60;38.60;;;;;;5076193;28;20086;-53
2021/04/21 12:31:38;;;;;;;2.40;1.27;;;27.60;38.60;;;;;;5076280;28;20398;-53
2021/04/21 12:34:06;;;;;;;2.92;1.38;;;27.60;38.60;;;;;;5076162;28;20112;-53
2021/04/21 12:36:37;;;;;;;3.25;1.50;;;27.60;38.50;;;;;;5058156;28;20466;-53
2021/04/21 12:39:11;;;;;;;3.92;1.50;;;27.60;38.30;;;;;;5073666;28;20024;-51
2021/04/21 12:41:39;;;;;;;3.13;1.50;;;27.70;38.50;;;;;;5056116;28;20517;-50
2021/04/21 12:44:31;;;;;;;4.35;1.52;;;27.70;38.40;;;;;;5072918;28;20416;-50
2021/04/21 12:47:09;;;;;;;4.38;1.35;;;27.70;38.70;;;;;;5075365;28;20484;-49
2021/04/21 12:49:37;;;;;;;4.45;1.80;;;27.70;38.50;;;;;;5057311;28;20355;-49
2021/04/21 12:52:06;;;;;;;5.47;1.30;;;27.80;38.60;;;;;;5075401;28;20056;-50
2021/04/21 12:54:34;;;;;;;6.75;1.92;;;27.80;38.40;;;;;;5075380;28;20036;-50
2021/04/21 12:57:01;;;;;;;2.97;1.30;;;27.80;38.50;;;;;;5057382;28;20076;-51
2021/04/21 12:59:27;;;;;;;6.63;1.35;;;27.80;38.50;;;;;;5074796;28;20028;-49
2021/04/21 13:01:53;;;;;;;2.72;1.48;;;27.80;38.60;;;;;;5057150;28;20043;-50
2021/04/21 13:04:19;;;;;;;3.45;1.60;;;27.80;38.60;;;;;;5057185;28;20033;-49
2021/04/21 13:06:50;;;;;;;4.20;1.60;;;27.80;38.40;;;;;;5075050;28;20103;-50
2021/04/21 13:09:21;;;;;;;3.70;1.38;;;27.80;38.40;;;;;;5057297;28;20063;-50
2021/04/21 13:12:02;;;;;;;2.28;1.30;;;27.80;38.40;;;;;;5057608;28;20037;-50
2021/04/21 13:14:42;;;;;;;3.15;1.50;;;27.80;38.20;;;;;;5074460;28;20032;-50
2021/04/21 13:17:10;;;;;;;4.50;1.67;;;27.80;38.20;;;;;;5074774;28;20028;-50
2021/04/21 13:19:38;;;;;;;5.22;1.60;;;27.90;38.40;;;;;;5040720;28;20454;-50
2021/04/21 13:22:12;;;;;;;2.80;1.40;;;27.90;38.40;;;;;;5074834;28;20052;-50